sensor_id;sensor_type;location;lat;lon;timestamp;temperature;humidity
22925;DHT22;11628;51.072;3.712;2023-04-01T00:00:27;10.60;99.90
22925;DHT22;11628;51.072;3.712;2023-04-01T00:02:53;10.60;99.90
22925;DHT22;11628;51.072;3.712;2023-04-01T00:05:19;10.60;99.90
22925;DHT22;11628;51.072;3.712;2023-04-01T00:07:45;10.70;99.90
22925;DHT22;11628;51.072;3.712;2023-04-01T00:10:12;10.60;99.90
22925;DHT22;11628;51.072;3.712;2023-04-01T00:12:38;10.60;99.90
22925;DHT22;11628;51.072;3.712;2023-04-01T00:15:07;10.70;99.90
22925;DHT22;11628;51.072;3.712;2023-04-01T00:17:34;10.70;99.90
22925;DHT22;11628;51.072;3.712;2023-04-01T00:20:00;10.60;99.90
22925;DHT22;11628;51.072;3.712;2023-04-01T00:22:26;10.70;99.90
22925;DHT22;11628;51.072;3.712;2023-04-01T00:24:52;10.80;99.90
22925;DHT22;11628;51.072;3.712;2023-04-01T00:27:18;10.80;99.90
22925;DHT22;11628;51.072;3.712;2023-04-01T00:29:45;10.80;99.90
22925;DHT22;11628;51.072;3.712;2023-04-01T00:32:12;10.80;99.90
22925;DHT22;11628;51.072;3.712;2023-04-01T00:34:38;10.90;99.90
22925;DHT22;11628;51.072;3.712;2023-04-01T00:37:05;10.90;99.90
22925;DHT22;11628;51.072;3.712;2023-04-01T00:39:32;10.80;99.90
22925;DHT22;11628;51.072;3.712;2023-04-01T00:41:58;10.70;99.90
22925;DHT22;11628;51.072;3.712;2023-04-01T00:44:28;10.80;99.90
22925;DHT22;11628;51.072;3.712;2023-04-01T00:46:54;10.80;99.90
22925;DHT22;11628;51.072;3.712;2023-04-01T00:49:23;10.80;99.90
22925;DHT22;11628;51.072;3.712;2023-04-01T00:51:54;10.80;99.90
22925;DHT22;11628;51.072;3.712;2023-04-01T00:54:21;10.80;99.90
22925;DHT22;11628;51.072;3.712;2023-04-01T00:56:52;10.70;99.90
22925;DHT22;11628;51.072;3.712;2023-04-01T00:59:25;10.80;99.90
22925;DHT22;11628;51.072;3.712;2023-04-01T01:01:52;10.80;99.90
22925;DHT22;11628;51.072;3.712;2023-04-01T01:04:31;10.80;99.90
22925;DHT22;11628;51.072;3.712;2023-04-01T01:10:04;10.70;99.90
22925;DHT22;11628;51.072;3.712;2023-04-01T01:15:26;10.70;99.90
22925;DHT22;11628;51.072;3.712;2023-04-01T01:26:39;10.70;99.90
22925;DHT22;11628;51.072;3.712;2023-04-01T01:29:31;10.60;99.90
22925;DHT22;11628;51.072;3.712;2023-04-01T01:35:03;10.60;99.90
22925;DHT22;11628;51.072;3.712;2023-04-01T01:37:31;10.60;99.90
22925;DHT22;11628;51.072;3.712;2023-04-01T01:40:04;10.60;99.90
22925;DHT22;11628;51.072;3.712;2023-04-01T01:42:32;10.50;99.90
22925;DHT22;11628;51.072;3.712;2023-04-01T01:45:01;10.60;99.90
22925;DHT22;11628;51.072;3.712;2023-04-01T01:47:28;10.70;99.90
22925;DHT22;11628;51.072;3.712;2023-04-01T01:49:55;10.60;99.90
22925;DHT22;11628;51.072;3.712;2023-04-01T01:52:26;10.70;99.90
22925;DHT22;11628;51.072;3.712;2023-04-01T01:54:55;10.60;99.90
22925;DHT22;11628;51.072;3.712;2023-04-01T01:57:33;10.60;99.90
22925;DHT22;11628;51.072;3.712;2023-04-01T02:00:07;10.70;99.90
22925;DHT22;11628;51.072;3.712;2023-04-01T02:02:48;10.60;99.90
22925;DHT22;11628;51.072;3.712;2023-04-01T02:05:19;10.60;99.90
22925;DHT22;11628;51.072;3.712;2023-04-01T02:07:49;10.60;99.90
22925;DHT22;11628;51.072;3.712;2023-04-01T02:10:20;10.60;99.90
22925;DHT22;11628;51.072;3.712;2023-04-01T02:12:48;10.60;99.90
22925;DHT22;11628;51.072;3.712;2023-04-01T02:15:15;10.60;99.90
22925;DHT22;11628;51.072;3.712;2023-04-01T02:17:44;10.60;99.90
22925;DHT22;11628;51.072;3.712;2023-04-01T02:20:13;10.70;99.90
22925;DHT22;11628;51.072;3.712;2023-04-01T02:22:44;10.60;99.90
22925;DHT22;11628;51.072;3.712;2023-04-01T02:25:18;10.60;99.90
22925;DHT22;11628;51.072;3.712;2023-04-01T02:27:45;10.70;99.90
22925;DHT22;11628;51.072;3.712;2023-04-01T02:30:12;10.80;99.90
22925;DHT22;11628;51.072;3.712;2023-04-01T02:32:40;10.80;99.90
22925;DHT22;11628;51.072;3.712;2023-04-01T02:35:10;10.80;99.90
22925;DHT22;11628;51.072;3.712;2023-04-01T02:37:38;10.80;99.90
22925;DHT22;11628;51.072;3.712;2023-04-01T02:40:08;10.70;99.90
22925;DHT22;11628;51.072;3.712;2023-04-01T02:42:35;10.70;99.90
22925;DHT22;11628;51.072;3.712;2023-04-01T02:45:01;10.70;99.90
22925;DHT22;11628;51.072;3.712;2023-04-01T02:47:27;10.70;99.90
22925;DHT22;11628;51.072;3.712;2023-04-01T02:49:52;10.70;99.90
22925;DHT22;11628;51.072;3.712;2023-04-01T02:52:28;10.70;99.90
22925;DHT22;11628;51.072;3.712;2023-04-01T02:54:55;10.70;99.90
22925;DHT22;11628;51.072;3.712;2023-04-01T02:57:21;10.70;99.90
22925;DHT22;11628;51.072;3.712;2023-04-01T02:59:47;10.70;99.90
22925;DHT22;11628;51.072;3.712;2023-04-01T03:02:13;10.70;99.90
22925;DHT22;11628;51.072;3.712;2023-04-01T03:04:38;10.60;99.90
22925;DHT22;11628;51.072;3.712;2023-04-01T03:07:04;10.60;99.90
22925;DHT22;11628;51.072;3.712;2023-04-01T03:09:30;10.60;99.90
22925;DHT22;11628;51.072;3.712;2023-04-01T03:11:56;10.60;99.90
22925;DHT22;11628;51.072;3.712;2023-04-01T03:14:21;10.60;99.90
22925;DHT22;11628;51.072;3.712;2023-04-01T03:16:47;10.70;99.90
22925;DHT22;11628;51.072;3.712;2023-04-01T03:19:13;10.60;99.90
22925;DHT22;11628;51.072;3.712;2023-04-01T03:21:38;10.60;99.90
22925;DHT22;11628;51.072;3.712;2023-04-01T03:24:04;10.60;99.90
22925;DHT22;11628;51.072;3.712;2023-04-01T03:26:31;10.70;99.90
22925;DHT22;11628;51.072;3.712;2023-04-01T03:28:57;10.70;99.90
22925;DHT22;11628;51.072;3.712;2023-04-01T03:31:23;10.70;99.90
22925;DHT22;11628;51.072;3.712;2023-04-01T03:33:48;10.70;99.90
22925;DHT22;11628;51.072;3.712;2023-04-01T03:36:14;10.70;99.90
22925;DHT22;11628;51.072;3.712;2023-04-01T03:38:40;10.80;99.90
22925;DHT22;11628;51.072;3.712;2023-04-01T03:41:07;10.80;99.90
22925;DHT22;11628;51.072;3.712;2023-04-01T03:43:33;10.70;99.90
22925;DHT22;11628;51.072;3.712;2023-04-01T03:45:59;10.80;99.90
22925;DHT22;11628;51.072;3.712;2023-04-01T03:48:25;10.80;99.90
22925;DHT22;11628;51.072;3.712;2023-04-01T03:50:51;10.80;99.90
22925;DHT22;11628;51.072;3.712;2023-04-01T03:53:17;10.80;99.90
22925;DHT22;11628;51.072;3.712;2023-04-01T03:55:43;10.80;99.90
22925;DHT22;11628;51.072;3.712;2023-04-01T03:58:09;10.80;99.90
22925;DHT22;11628;51.072;3.712;2023-04-01T04:00:35;10.70;99.90
22925;DHT22;11628;51.072;3.712;2023-04-01T04:03:01;10.70;99.90
22925;DHT22;11628;51.072;3.712;2023-04-01T04:05:27;10.70;99.90
22925;DHT22;11628;51.072;3.712;2023-04-01T04:07:53;10.70;99.90
22925;DHT22;11628;51.072;3.712;2023-04-01T04:10:19;10.70;99.90
22925;DHT22;11628;51.072;3.712;2023-04-01T04:12:46;10.70;99.90
22925;DHT22;11628;51.072;3.712;2023-04-01T04:15:12;10.70;99.90
22925;DHT22;11628;51.072;3.712;2023-04-01T04:17:38;10.70;99.90
22925;DHT22;11628;51.072;3.712;2023-04-01T04:20:04;10.60;99.90
22925;DHT22;11628;51.072;3.712;2023-04-01T04:22:30;10.70;99.90
22925;DHT22;11628;51.072;3.712;2023-04-01T04:24:56;10.70;99.90
22925;DHT22;11628;51.072;3.712;2023-04-01T04:27:21;10.70;99.90
22925;DHT22;11628;51.072;3.712;2023-04-01T04:29:47;10.60;99.90
22925;DHT22;11628;51.072;3.712;2023-04-01T04:32:13;10.60;99.90
22925;DHT22;11628;51.072;3.712;2023-04-01T04:34:38;10.60;99.90
22925;DHT22;11628;51.072;3.712;2023-04-01T04:37:04;10.60;99.90
22925;DHT22;11628;51.072;3.712;2023-04-01T04:39:30;10.60;99.90
22925;DHT22;11628;51.072;3.712;2023-04-01T04:41:55;10.70;99.90
22925;DHT22;11628;51.072;3.712;2023-04-01T04:44:21;10.70;99.90
22925;DHT22;11628;51.072;3.712;2023-04-01T04:46:47;10.70;99.90
22925;DHT22;11628;51.072;3.712;2023-04-01T04:49:13;10.70;99.90
22925;DHT22;11628;51.072;3.712;2023-04-01T04:51:38;10.70;99.90
22925;DHT22;11628;51.072;3.712;2023-04-01T04:54:05;10.70;99.90
22925;DHT22;11628;51.072;3.712;2023-04-01T04:56:32;10.70;99.90
22925;DHT22;11628;51.072;3.712;2023-04-01T04:58:58;10.70;99.90
22925;DHT22;11628;51.072;3.712;2023-04-01T05:01:24;10.70;99.90
22925;DHT22;11628;51.072;3.712;2023-04-01T05:03:50;10.70;99.90
22925;DHT22;11628;51.072;3.712;2023-04-01T05:06:17;10.70;99.90
22925;DHT22;11628;51.072;3.712;2023-04-01T05:08:44;10.60;99.90
22925;DHT22;11628;51.072;3.712;2023-04-01T05:11:13;10.60;99.90
22925;DHT22;11628;51.072;3.712;2023-04-01T05:13:39;10.70;99.90
22925;DHT22;11628;51.072;3.712;2023-04-01T05:16:12;10.70;99.90
22925;DHT22;11628;51.072;3.712;2023-04-01T05:18:38;10.60;99.90
22925;DHT22;11628;51.072;3.712;2023-04-01T05:21:04;10.60;99.90
22925;DHT22;11628;51.072;3.712;2023-04-01T05:23:31;10.60;99.90
22925;DHT22;11628;51.072;3.712;2023-04-01T05:25:57;10.60;99.90
22925;DHT22;11628;51.072;3.712;2023-04-01T05:28:23;10.70;99.90
22925;DHT22;11628;51.072;3.712;2023-04-01T05:30:49;10.70;99.90
22925;DHT22;11628;51.072;3.712;2023-04-01T05:33:15;10.80;99.90
22925;DHT22;11628;51.072;3.712;2023-04-01T05:35:41;10.80;99.90
22925;DHT22;11628;51.072;3.712;2023-04-01T05:38:07;10.70;99.90
22925;DHT22;11628;51.072;3.712;2023-04-01T05:40:33;10.70;99.90
22925;DHT22;11628;51.072;3.712;2023-04-01T05:42:59;10.70;99.90
22925;DHT22;11628;51.072;3.712;2023-04-01T05:45:26;10.70;99.90
22925;DHT22;11628;51.072;3.712;2023-04-01T05:47:52;10.70;99.90
22925;DHT22;11628;51.072;3.712;2023-04-01T05:50:18;10.70;99.90
22925;DHT22;11628;51.072;3.712;2023-04-01T05:52:44;10.70;99.90
22925;DHT22;11628;51.072;3.712;2023-04-01T05:55:10;10.80;99.90
22925;DHT22;11628;51.072;3.712;2023-04-01T05:57:36;10.80;99.90
22925;DHT22;11628;51.072;3.712;2023-04-01T06:00:02;10.70;99.90
22925;DHT22;11628;51.072;3.712;2023-04-01T06:02:28;10.70;99.90
22925;DHT22;11628;51.072;3.712;2023-04-01T06:05:11;10.70;99.90
22925;DHT22;11628;51.072;3.712;2023-04-01T06:07:37;10.70;99.90
22925;DHT22;11628;51.072;3.712;2023-04-01T06:10:18;10.70;99.90
22925;DHT22;11628;51.072;3.712;2023-04-01T06:12:55;10.80;99.90
22925;DHT22;11628;51.072;3.712;2023-04-01T06:23:53;10.70;99.90
22925;DHT22;11628;51.072;3.712;2023-04-01T06:29:23;10.70;99.90
22925;DHT22;11628;51.072;3.712;2023-04-01T06:35:21;10.70;99.90
22925;DHT22;11628;51.072;3.712;2023-04-01T06:37:57;10.70;99.90
22925;DHT22;11628;51.072;3.712;2023-04-01T06:54:30;10.80;99.90
22925;DHT22;11628;51.072;3.712;2023-04-01T06:57:02;10.80;99.90
22925;DHT22;11628;51.072;3.712;2023-04-01T06:59:34;10.80;99.90
22925;DHT22;11628;51.072;3.712;2023-04-01T07:02:13;10.80;99.90
22925;DHT22;11628;51.072;3.712;2023-04-01T07:04:46;10.80;99.90
22925;DHT22;11628;51.072;3.712;2023-04-01T07:07:37;10.80;99.90
22925;DHT22;11628;51.072;3.712;2023-04-01T07:10:09;10.80;99.90
22925;DHT22;11628;51.072;3.712;2023-04-01T07:13:00;10.90;99.90
22925;DHT22;11628;51.072;3.712;2023-04-01T07:15:33;10.90;99.90
22925;DHT22;11628;51.072;3.712;2023-04-01T07:18:21;10.90;99.90
22925;DHT22;11628;51.072;3.712;2023-04-01T07:20:49;10.80;99.90
22925;DHT22;11628;51.072;3.712;2023-04-01T07:23:29;10.80;99.90
22925;DHT22;11628;51.072;3.712;2023-04-01T07:26:18;10.90;99.90
22925;DHT22;11628;51.072;3.712;2023-04-01T07:28:44;10.90;99.90
22925;DHT22;11628;51.072;3.712;2023-04-01T07:31:15;11.00;99.90
22925;DHT22;11628;51.072;3.712;2023-04-01T07:34:05;10.90;99.90
22925;DHT22;11628;51.072;3.712;2023-04-01T07:42:09;11.00;99.90
22925;DHT22;11628;51.072;3.712;2023-04-01T07:55:50;11.10;99.90
22925;DHT22;11628;51.072;3.712;2023-04-01T07:58:35;11.20;99.90
22925;DHT22;11628;51.072;3.712;2023-04-01T08:06:52;11.30;99.90
22925;DHT22;11628;51.072;3.712;2023-04-01T08:20:25;11.50;99.90
22925;DHT22;11628;51.072;3.712;2023-04-01T08:22:59;11.50;99.90
22925;DHT22;11628;51.072;3.712;2023-04-01T08:25:28;11.50;99.90
22925;DHT22;11628;51.072;3.712;2023-04-01T08:30:53;11.40;99.90
22925;DHT22;11628;51.072;3.712;2023-04-01T08:33:29;11.30;99.90
22925;DHT22;11628;51.072;3.712;2023-04-01T08:46:17;11.40;99.90
22925;DHT22;11628;51.072;3.712;2023-04-01T08:48:48;11.50;99.90
22925;DHT22;11628;51.072;3.712;2023-04-01T08:57:19;11.80;99.90
22925;DHT22;11628;51.072;3.712;2023-04-01T09:22:11;13.10;99.90
22925;DHT22;11628;51.072;3.712;2023-04-01T09:25:01;13.00;99.90
22925;DHT22;11628;51.072;3.712;2023-04-01T09:27:44;13.00;99.90
22925;DHT22;11628;51.072;3.712;2023-04-01T09:30:33;12.90;99.90
22925;DHT22;11628;51.072;3.712;2023-04-01T09:39:03;12.60;99.90
22925;DHT22;11628;51.072;3.712;2023-04-01T09:42:13;12.50;99.90
22925;DHT22;11628;51.072;3.712;2023-04-01T09:44:46;12.50;99.90
22925;DHT22;11628;51.072;3.712;2023-04-01T09:50:27;12.70;99.90
22925;DHT22;11628;51.072;3.712;2023-04-01T10:04:37;12.80;99.90
22925;DHT22;11628;51.072;3.712;2023-04-01T10:35:03;13.30;99.90
22925;DHT22;11628;51.072;3.712;2023-04-01T10:40:37;13.20;99.90
22925;DHT22;11628;51.072;3.712;2023-04-01T10:49:10;14.20;99.90
22925;DHT22;11628;51.072;3.712;2023-04-01T11:23:05;13.50;99.90
22925;DHT22;11628;51.072;3.712;2023-04-01T11:26:17;13.40;99.90
22925;DHT22;11628;51.072;3.712;2023-04-01T11:31:44;13.60;99.90
22925;DHT22;11628;51.072;3.712;2023-04-01T11:34:48;13.50;99.90
22925;DHT22;11628;51.072;3.712;2023-04-01T11:37:51;13.30;99.90
22925;DHT22;11628;51.072;3.712;2023-04-01T11:41:02;13.40;99.90
22925;DHT22;11628;51.072;3.712;2023-04-01T11:44:17;13.50;99.90
22925;DHT22;11628;51.072;3.712;2023-04-01T11:46:46;13.40;99.90
22925;DHT22;11628;51.072;3.712;2023-04-01T12:03:18;13.10;99.90
22925;DHT22;11628;51.072;3.712;2023-04-01T12:08:31;13.00;99.90
22925;DHT22;11628;51.072;3.712;2023-04-01T12:33:18;13.80;99.90
22925;DHT22;11628;51.072;3.712;2023-04-01T12:41:44;13.20;99.90
22925;DHT22;11628;51.072;3.712;2023-04-01T12:47:24;12.90;99.90
22925;DHT22;11628;51.072;3.712;2023-04-01T12:50:22;12.90;99.90
22925;DHT22;11628;51.072;3.712;2023-04-01T12:55:49;13.00;99.90
22925;DHT22;11628;51.072;3.712;2023-04-01T13:06:46;13.10;99.90
22925;DHT22;11628;51.072;3.712;2023-04-01T13:15:35;12.80;99.90
22925;DHT22;11628;51.072;3.712;2023-04-01T13:24:02;12.70;99.90
22925;DHT22;11628;51.072;3.712;2023-04-01T13:29:20;13.00;99.90
22925;DHT22;11628;51.072;3.712;2023-04-01T13:31:55;13.10;99.90
22925;DHT22;11628;51.072;3.712;2023-04-01T13:42:57;13.30;99.90
22925;DHT22;11628;51.072;3.712;2023-04-01T13:48:37;13.30;99.90
22925;DHT22;11628;51.072;3.712;2023-04-01T13:54:05;13.10;99.90
22925;DHT22;11628;51.072;3.712;2023-04-01T13:59:38;13.10;99.90
22925;DHT22;11628;51.072;3.712;2023-04-01T14:05:28;13.30;99.90
22925;DHT22;11628;51.072;3.712;2023-04-01T14:13:50;13.70;99.90
22925;DHT22;11628;51.072;3.712;2023-04-01T14:24:32;13.60;99.90
22925;DHT22;11628;51.072;3.712;2023-04-01T14:33:16;13.80;99.90
22925;DHT22;11628;51.072;3.712;2023-04-01T14:38:43;13.80;99.90
22925;DHT22;11628;51.072;3.712;2023-04-01T14:41:38;13.80;99.90
22925;DHT22;11628;51.072;3.712;2023-04-01T14:44:35;13.60;99.90
22925;DHT22;11628;51.072;3.712;2023-04-01T14:49:47;13.60;99.90
22925;DHT22;11628;51.072;3.712;2023-04-01T14:52:25;13.60;99.90
22925;DHT22;11628;51.072;3.712;2023-04-01T14:54:53;13.70;99.90
22925;DHT22;11628;51.072;3.712;2023-04-01T14:57:27;13.70;99.90
22925;DHT22;11628;51.072;3.712;2023-04-01T15:00:12;13.60;99.90
22925;DHT22;11628;51.072;3.712;2023-04-01T15:05:49;13.50;99.90
22925;DHT22;11628;51.072;3.712;2023-04-01T15:08:36;13.50;99.90
22925;DHT22;11628;51.072;3.712;2023-04-01T15:21:55;13.10;99.90
22925;DHT22;11628;51.072;3.712;2023-04-01T15:40:28;12.80;99.90
22925;DHT22;11628;51.072;3.712;2023-04-01T15:51:20;12.70;99.90
22925;DHT22;11628;51.072;3.712;2023-04-01T15:54:12;12.60;99.90
22925;DHT22;11628;51.072;3.712;2023-04-01T16:02:33;12.70;99.90
22925;DHT22;11628;51.072;3.712;2023-04-01T16:05:10;12.70;99.90
22925;DHT22;11628;51.072;3.712;2023-04-01T16:07:59;12.70;99.90
22925;DHT22;11628;51.072;3.712;2023-04-01T16:13:46;12.60;99.90
22925;DHT22;11628;51.072;3.712;2023-04-01T16:19:23;12.50;99.90
22925;DHT22;11628;51.072;3.712;2023-04-01T16:24:38;12.30;99.90
22925;DHT22;11628;51.072;3.712;2023-04-01T16:41:35;12.10;99.90
22925;DHT22;11628;51.072;3.712;2023-04-01T16:47:23;12.10;99.90
22925;DHT22;11628;51.072;3.712;2023-04-01T16:50:00;12.10;99.90
22925;DHT22;11628;51.072;3.712;2023-04-01T16:55:41;12.00;99.90
22925;DHT22;11628;51.072;3.712;2023-04-01T16:58:18;12.00;99.90
22925;DHT22;11628;51.072;3.712;2023-04-01T17:01:36;12.00;99.90
22925;DHT22;11628;51.072;3.712;2023-04-01T17:03:45;12.10;99.90
22925;DHT22;11628;51.072;3.712;2023-04-01T17:09:08;12.20;99.90
22925;DHT22;11628;51.072;3.712;2023-04-01T17:12:05;12.20;99.90
22925;DHT22;11628;51.072;3.712;2023-04-01T17:20:01;12.20;99.90
22925;DHT22;11628;51.072;3.712;2023-04-01T17:25:29;12.10;99.90
22925;DHT22;11628;51.072;3.712;2023-04-01T17:31:12;12.00;99.90
22925;DHT22;11628;51.072;3.712;2023-04-01T17:39:12;12.00;99.90
22925;DHT22;11628;51.072;3.712;2023-04-01T17:41:53;12.00;99.90
22925;DHT22;11628;51.072;3.712;2023-04-01T17:44:57;12.00;99.90
22925;DHT22;11628;51.072;3.712;2023-04-01T17:47:33;11.90;99.90
22925;DHT22;11628;51.072;3.712;2023-04-01T17:50:24;11.80;99.90
22925;DHT22;11628;51.072;3.712;2023-04-01T17:53:11;11.80;99.90
22925;DHT22;11628;51.072;3.712;2023-04-01T17:55:48;11.70;99.90
22925;DHT22;11628;51.072;3.712;2023-04-01T17:58:25;11.70;99.90
22925;DHT22;11628;51.072;3.712;2023-04-01T18:17:11;11.60;99.90
22925;DHT22;11628;51.072;3.712;2023-04-01T18:20:00;11.60;99.90
22925;DHT22;11628;51.072;3.712;2023-04-01T18:25:27;11.60;99.90
22925;DHT22;11628;51.072;3.712;2023-04-01T18:30:37;11.50;99.90
22925;DHT22;11628;51.072;3.712;2023-04-01T18:33:17;11.50;99.90
22925;DHT22;11628;51.072;3.712;2023-04-01T18:38:44;11.50;99.90
22925;DHT22;11628;51.072;3.712;2023-04-01T18:41:19;11.50;99.90
22925;DHT22;11628;51.072;3.712;2023-04-01T18:46:46;11.50;99.90
22925;DHT22;11628;51.072;3.712;2023-04-01T18:52:03;11.40;99.90
22925;DHT22;11628;51.072;3.712;2023-04-01T18:54:45;11.50;99.90
22925;DHT22;11628;51.072;3.712;2023-04-01T18:57:16;11.40;99.90
22925;DHT22;11628;51.072;3.712;2023-04-01T19:05:18;11.50;99.90
22925;DHT22;11628;51.072;3.712;2023-04-01T19:18:53;11.30;99.90
22925;DHT22;11628;51.072;3.712;2023-04-01T19:21:41;11.30;99.90
22925;DHT22;11628;51.072;3.712;2023-04-01T19:27:15;11.30;99.90
22925;DHT22;11628;51.072;3.712;2023-04-01T19:35:18;11.20;99.90
22925;DHT22;11628;51.072;3.712;2023-04-01T19:40:19;11.30;99.90
22925;DHT22;11628;51.072;3.712;2023-04-01T19:51:34;11.30;99.90
22925;DHT22;11628;51.072;3.712;2023-04-01T19:54:21;11.40;99.90
22925;DHT22;11628;51.072;3.712;2023-04-01T19:57:04;11.40;99.90
22925;DHT22;11628;51.072;3.712;2023-04-01T20:04:35;11.30;99.90
22925;DHT22;11628;51.072;3.712;2023-04-01T20:07:32;11.30;99.90
22925;DHT22;11628;51.072;3.712;2023-04-01T20:12:46;11.30;99.90
22925;DHT22;11628;51.072;3.712;2023-04-01T20:15:43;11.30;99.90
22925;DHT22;11628;51.072;3.712;2023-04-01T20:18:39;11.30;99.90
22925;DHT22;11628;51.072;3.712;2023-04-01T20:21:30;11.30;99.90
22925;DHT22;11628;51.072;3.712;2023-04-01T20:24:17;11.30;99.90
22925;DHT22;11628;51.072;3.712;2023-04-01T20:26:58;11.30;99.90
22925;DHT22;11628;51.072;3.712;2023-04-01T20:29:40;11.20;99.90
22925;DHT22;11628;51.072;3.712;2023-04-01T20:37:42;11.30;99.90
22925;DHT22;11628;51.072;3.712;2023-04-01T20:51:16;11.30;99.90
22925;DHT22;11628;51.072;3.712;2023-04-01T20:58:56;11.30;99.90
22925;DHT22;11628;51.072;3.712;2023-04-01T21:01:46;11.40;99.90
22925;DHT22;11628;51.072;3.712;2023-04-01T21:04:22;11.30;99.90
22925;DHT22;11628;51.072;3.712;2023-04-01T21:07:15;11.30;99.90
22925;DHT22;11628;51.072;3.712;2023-04-01T21:09:53;11.30;99.90
22925;DHT22;11628;51.072;3.712;2023-04-01T21:31:21;11.30;99.90
22925;DHT22;11628;51.072;3.712;2023-04-01T21:37:32;11.30;99.90
22925;DHT22;11628;51.072;3.712;2023-04-01T21:40:30;11.30;99.90
22925;DHT22;11628;51.072;3.712;2023-04-01T21:54:30;11.20;99.90
22925;DHT22;11628;51.072;3.712;2023-04-01T21:57:11;11.20;99.90
22925;DHT22;11628;51.072;3.712;2023-04-01T22:05:20;11.20;99.90
22925;DHT22;11628;51.072;3.712;2023-04-01T22:10:59;11.30;99.90
22925;DHT22;11628;51.072;3.712;2023-04-01T22:13:36;11.30;99.90
22925;DHT22;11628;51.072;3.712;2023-04-01T22:21:52;11.30;99.90
22925;DHT22;11628;51.072;3.712;2023-04-01T22:24:51;11.30;99.90
22925;DHT22;11628;51.072;3.712;2023-04-01T22:30:25;11.20;99.90
22925;DHT22;11628;51.072;3.712;2023-04-01T22:33:12;11.30;99.90
22925;DHT22;11628;51.072;3.712;2023-04-01T22:44:23;11.30;99.90
22925;DHT22;11628;51.072;3.712;2023-04-01T22:46:59;11.20;99.90
22925;DHT22;11628;51.072;3.712;2023-04-01T22:49:50;11.30;99.90
22925;DHT22;11628;51.072;3.712;2023-04-01T22:52:35;11.30;99.90
22925;DHT22;11628;51.072;3.712;2023-04-01T22:57:58;11.30;99.90
22925;DHT22;11628;51.072;3.712;2023-04-01T23:00:39;11.30;99.90
22925;DHT22;11628;51.072;3.712;2023-04-01T23:05:34;11.30;99.90
22925;DHT22;11628;51.072;3.712;2023-04-01T23:10:57;11.40;99.90
22925;DHT22;11628;51.072;3.712;2023-04-01T23:13:35;11.40;99.90
22925;DHT22;11628;51.072;3.712;2023-04-01T23:16:03;11.40;99.90
22925;DHT22;11628;51.072;3.712;2023-04-01T23:18:52;11.40;99.90
22925;DHT22;11628;51.072;3.712;2023-04-01T23:21:35;11.40;99.90
22925;DHT22;11628;51.072;3.712;2023-04-01T23:26:39;11.30;99.90
22925;DHT22;11628;51.072;3.712;2023-04-01T23:29:14;11.40;99.90
22925;DHT22;11628;51.072;3.712;2023-04-01T23:31:43;11.30;99.90
22925;DHT22;11628;51.072;3.712;2023-04-01T23:36:40;11.40;99.90
22925;DHT22;11628;51.072;3.712;2023-04-01T23:39:28;11.40;99.90
22925;DHT22;11628;51.072;3.712;2023-04-01T23:41:59;11.30;99.90
22925;DHT22;11628;51.072;3.712;2023-04-01T23:44:26;11.30;99.90
22925;DHT22;11628;51.072;3.712;2023-04-01T23:46:54;11.30;99.90
22925;DHT22;11628;51.072;3.712;2023-04-01T23:49:28;11.30;99.90
22925;DHT22;11628;51.072;3.712;2023-04-01T23:52:03;11.30;99.90
22925;DHT22;11628;51.072;3.712;2023-04-01T23:57:34;11.40;99.90
